Time;durP1;ratioP1;P1;durP2;ratioP2;P2;SDS_P1;SDS_P2;PMS_P1;PMS_P2;Temp;Humidity;BMP_temperature;BMP_pressure;BME280_temperature;BME280_humidity;BME280_pressure;Samples;Min_cycle;Max_cycle;Signal;HPM_P1;HPM_P2
2022/07/04 00:01:52;;;;;;;12.07;6.53;;;;;;;22.12;79.32;99154.00;1685135;85;21022;-91
2022/07/04 00:04:19;;;;;;;14.80;7.17;;;;;;;22.13;78.81;99149.09;1684981;85;21003;-90
2022/07/04 00:06:46;;;;;;;14.23;6.92;;;;;;;22.12;79.05;99150.86;1684935;85;20988;-91
2022/07/04 00:09:13;;;;;;;10.32;7.10;;;;;;;22.14;79.46;99148.95;1683838;85;21088;-89
2022/07/04 00:11:39;;;;;;;11.73;6.90;;;;;;;22.15;79.18;99149.33;1683961;85;21072;-90
2022/07/04 00:14:06;;;;;;;11.33;6.95;;;;;;;22.15;79.08;99145.36;1684804;85;21024;-90
2022/07/04 00:16:34;;;;;;;16.15;7.05;;;;;;;22.16;79.02;99140.91;1685165;85;21011;-91
2022/07/04 00:19:01;;;;;;;15.35;7.37;;;;;;;22.16;78.81;99146.20;1684670;85;21055;-91
2022/07/04 00:21:28;;;;;;;18.27;7.20;;;;;;;22.15;78.94;99145.84;1680250;85;21071;-91
2022/07/04 00:23:55;;;;;;;14.65;7.80;;;;;;;22.12;78.99;99138.11;1679804;86;20995;-91
2022/07/04 00:26:22;;;;;;;13.55;7.87;;;;;;;22.10;79.17;99138.70;1679865;85;20948;-91
2022/07/04 00:28:49;;;;;;;15.30;7.37;;;;;;;22.04;78.70;99134.23;1680577;85;21583;-90
2022/07/04 00:31:15;;;;;;;12.20;7.70;;;;;;;22.00;79.19;99128.80;1679791;85;20971;-89
2022/07/04 00:33:42;;;;;;;17.42;7.65;;;;;;;21.99;78.99;99123.61;1680571;85;21011;-91
2022/07/04 00:36:09;;;;;;;12.60;7.83;;;;;;;21.96;79.14;99132.59;1679622;85;20972;-91
2022/07/04 00:38:36;;;;;;;11.90;7.75;;;;;;;21.93;79.16;99124.05;1674656;85;21035;-91
2022/07/04 00:41:03;;;;;;;10.85;7.47;;;;;;;21.93;79.30;99130.17;1662031;86;21029;-90
2022/07/04 00:43:30;;;;;;;14.83;8.88;;;;;;;21.93;79.08;99126.20;1681562;83;20956;-89
2022/07/04 00:45:57;;;;;;;15.18;9.60;;;;;;;21.94;79.36;99125.72;1725102;81;21039;-90
2022/07/04 00:48:25;;;;;;;15.40;9.63;;;;;;;21.91;79.71;99128.61;1752730;81;20982;-90
2022/07/04 00:50:52;;;;;;;23.15;9.98;;;;;;;21.91;80.63;99132.09;1752824;81;20983;-88
2022/07/04 00:53:22;;;;;;;16.80;9.00;;;;;;;21.91;80.37;99129.44;1781736;80;20949;-89
2022/07/04 01:01:20;;;;;;;13.13;7.90;;;;;;;21.92;80.54;99124.98;1629271;86;21152;-90
2022/07/04 01:03:47;;;;;;;14.13;7.85;;;;;;;21.95;80.61;99132.72;1629050;88;21096;-89
2022/07/04 01:06:15;;;;;;;12.55;7.40;;;;;;;21.97;80.13;99134.30;1629050;88;21024;-91
2022/07/04 01:08:43;;;;;;;12.03;6.75;;;;;;;21.99;79.91;99135.52;1629085;88;21023;-91
2022/07/04 01:11:10;;;;;;;10.68;7.28;;;;;;;22.00;79.27;99139.38;1629072;87;21040;-91
2022/07/04 01:13:37;;;;;;;31.85;8.68;;;;;;;21.99;79.67;99135.52;1628994;88;21027;-91
2022/07/04 01:16:05;;;;;;;10.82;6.60;;;;;;;22.00;79.58;99134.09;1628610;87;21101;-90
2022/07/04 01:18:31;;;;;;;16.87;7.17;;;;;;;22.04;79.53;99126.30;1594333;90;21035;-90
2022/07/04 01:20:58;;;;;;;11.12;6.62;;;;;;;22.07;79.26;99125.22;1602458;90;21062;-91
2022/07/04 01:23:26;;;;;;;9.63;6.60;;;;;;;22.07;79.25;99124.37;1617763;88;21040;-91
2022/07/04 01:25:53;;;;;;;17.73;7.03;;;;;;;22.08;79.26;99124.24;1628128;88;21100;-91
2022/07/04 01:28:24;;;;;;;10.75;6.85;;;;;;;;;;1628271;88;21058;-91
2022/07/04 01:30:51;;;;;;;15.25;8.10;;;;;;;22.09;78.57;99122.47;1623817;88;21108;-91
2022/07/04 01:33:19;;;;;;;14.28;7.30;;;;;;;22.04;78.67;99119.67;1624420;88;21074;-90
2022/07/04 01:35:46;;;;;;;12.55;7.85;;;;;;;22.03;79.08;99120.61;1622529;88;20987;-91
2022/07/04 01:38:14;;;;;;;14.58;7.67;;;;;;;22.02;78.97;99114.09;1598159;90;20983;-91
2022/07/04 01:40:41;;;;;;;18.12;7.95;;;;;;;22.01;78.65;99115.08;1631326;88;20984;-91
2022/07/04 01:43:08;;;;;;;17.02;8.20;;;;;;;21.99;79.21;99121.80;1642442;88;21009;-91
2022/07/04 01:45:37;;;;;;;14.78;8.50;;;;;;;21.99;79.49;99118.31;1642391;88;20981;-91
2022/07/04 01:48:10;;;;;;;13.62;9.13;;;;;;;21.96;79.30;99120.67;1642309;88;21042;-91
2022/07/04 01:50:37;;;;;;;;;;;;;;;21.92;79.44;99117.05;1649756;87;20998;-91
2022/07/04 01:53:04;;;;;;;13.15;8.58;;;;;;;21.86;80.05;99120.97;1654799;87;20114;-91
2022/07/04 01:55:31;;;;;;;15.55;7.78;;;;;;;21.80;79.38;99123.58;1600257;89;21006;-91
2022/07/04 01:57:58;;;;;;;13.58;7.65;;;;;;;21.76;78.93;99122.59;1602580;87;21083;-91
2022/07/04 02:03:11;;;;;;;13.35;7.53;;;;;;;21.60;78.52;99128.95;1671616;86;20984;-90
2022/07/04 02:05:39;;;;;;;13.18;7.50;;;;;;;21.52;79.37;99128.64;1668364;86;21060;-90
2022/07/04 02:08:07;;;;;;;13.80;8.15;;;;;;;21.48;79.35;99121.88;1659704;87;21035;-89
2022/07/04 02:10:34;;;;;;;18.00;8.08;;;;;;;21.43;79.63;99130.14;1659742;87;21031;-90
2022/07/04 02:13:01;;;;;;;12.43;7.65;;;;;;;21.40;80.28;99123.70;1664907;86;21012;-91
2022/07/04 02:15:35;;;;;;;14.68;8.40;;;;;;;21.39;80.16;99129.95;1670188;86;21031;-90
2022/07/04 02:18:09;;;;;;;16.93;8.05;;;;;;;21.37;80.17;99127.89;1670150;86;21028;-90
2022/07/04 02:20:37;;;;;;;14.85;8.18;;;;;;;21.36;80.14;99134.13;1671405;86;20959;-90
2022/07/04 02:23:05;;;;;;;12.95;7.67;;;;;;;21.32;80.46;99131.80;1671526;86;21004;-90
2022/07/04 02:25:33;;;;;;;12.47;7.83;;;;;;;21.31;80.38;99130.96;1670216;86;21564;-88
2022/07/04 02:28:00;;;;;;;17.87;9.15;;;;;;;21.31;80.49;99127.45;1669325;86;20996;-89
2022/07/04 02:30:26;;;;;;;14.45;8.50;;;;;;;21.26;80.84;99139.19;1670095;86;21000;-90
2022/07/04 02:32:53;;;;;;;14.50;8.80;;;;;;;21.26;80.73;99139.19;1670244;86;21027;-90
2022/07/04 02:35:20;;;;;;;15.83;8.58;;;;;;;21.24;81.12;99139.77;1670217;86;21016;-91
2022/07/04 02:37:47;;;;;;;13.20;7.87;;;;;;;21.20;81.13;99133.48;1670163;86;21047;-90
2022/07/04 02:40:14;;;;;;;16.82;8.58;;;;;;;21.17;81.33;99135.88;1670181;86;21028;-90
2022/07/04 02:42:41;;;;;;;13.30;8.95;;;;;;;21.17;81.86;99135.88;1670135;86;21108;-91
2022/07/04 02:45:09;;;;;;;17.67;8.78;;;;;;;21.17;81.96;99137.20;1670096;86;21028;-90
2022/07/04 02:47:36;;;;;;;14.78;8.75;;;;;;;21.18;82.10;99130.94;1670157;86;20996;-91
2022/07/04 02:50:03;;;;;;;18.65;9.03;;;;;;;21.19;81.63;99133.97;1670087;86;21027;-90
2022/07/04 02:52:30;;;;;;;16.25;8.88;;;;;;;21.20;81.98;99141.42;1670170;86;21000;-89
2022/07/04 02:54:58;;;;;;;13.95;8.75;;;;;;;21.19;81.93;99133.13;1671539;86;21029;-90
2022/07/04 02:57:25;;;;;;;14.53;9.50;;;;;;;21.15;81.97;99137.78;1671494;86;20995;-90
2022/07/04 02:59:52;;;;;;;17.02;9.55;;;;;;;21.16;82.27;99139.45;1671558;86;21131;-89
2022/07/04 03:02:19;;;;;;;16.77;9.30;;;;;;;21.18;82.40;99142.84;1657171;87;21034;-90
2022/07/04 03:04:46;;;;;;;19.12;9.25;;;;;;;21.24;82.73;99146.87;1671992;86;21091;-89
2022/07/04 03:07:13;;;;;;;15.20;8.65;;;;;;;21.30;82.09;99151.73;1700144;84;21083;-89
2022/07/04 03:09:40;;;;;;;16.15;9.03;;;;;;;21.32;82.31;99152.47;1700672;84;21102;-90
2022/07/04 03:12:08;;;;;;;15.20;9.48;;;;;;;21.34;82.23;99152.38;1700935;84;21059;-90
2022/07/04 03:14:35;;;;;;;15.90;9.00;;;;;;;21.31;81.82;99154.77;1701567;84;21059;-90
2022/07/04 03:17:02;;;;;;;17.37;9.70;;;;;;;21.30;82.23;99158.83;1727644;83;21031;-90
2022/07/04 03:19:29;;;;;;;15.55;8.15;;;;;;;21.30;81.68;99155.70;1734687;83;20982;-90
2022/07/04 03:21:55;;;;;;;21.87;8.85;;;;;;;21.30;82.29;99157.50;1734765;83;21015;-90
2022/07/04 03:24:22;;;;;;;17.90;9.80;;;;;;;21.33;82.09;99156.83;1734571;83;21011;-91
2022/07/04 03:26:49;;;;;;;16.40;8.98;;;;;;;21.32;82.31;99160.89;1709412;83;21002;-89
2022/07/04 03:29:17;;;;;;;13.68;8.78;;;;;;;21.31;82.37;99159.18;1705167;84;21006;-90
2022/07/04 03:31:44;;;;;;;13.30;9.18;;;;;;;21.30;81.39;99164.11;1705318;84;21027;-91
2022/07/04 03:34:11;;;;;;;17.50;9.43;;;;;;;21.22;81.44;99167.27;1705313;84;20954;-90
2022/07/04 03:36:38;;;;;;;19.55;9.23;;;;;;;21.21;82.39;99159.83;1673966;86;21055;-90
2022/07/04 03:39:05;;;;;;;14.28;8.98;;;;;;;21.23;81.97;99168.50;1656975;87;21007;-90
2022/07/04 03:41:32;;;;;;;13.65;9.40;;;;;;;21.25;82.38;99175.02;1656976;86;21078;-91
2022/07/04 03:43:58;;;;;;;18.17;9.35;;;;;;;21.27;82.34;99178.40;1674137;86;21003;-90
2022/07/04 03:46:25;;;;;;;19.30;9.53;;;;;;;21.25;81.65;99181.14;1656837;86;21058;-90
2022/07/04 03:48:53;;;;;;;18.62;8.88;;;;;;;21.25;82.70;99183.78;1705281;84;20961;-90
2022/07/04 03:51:20;;;;;;;21.35;10.28;;;;;;;21.22;83.04;99180.50;1710558;83;21007;-90
2022/07/04 03:53:47;;;;;;;17.55;9.83;;;;;;;21.22;83.24;99180.02;1734646;83;20967;-90
2022/07/04 03:56:14;;;;;;;18.15;9.85;;;;;;;21.25;82.06;99186.42;1732025;83;21091;-90
2022/07/04 03:58:48;;;;;;;14.35;9.98;;;;;;;21.22;83.09;99174.72;1705499;84;21002;-90
2022/07/04 04:01:13;;;;;;;16.25;8.75;;;;;;;21.23;82.76;99179.56;1704659;83;21071;-90
2022/07/04 04:06:25;;;;;;;19.12;8.83;;;;;;;21.31;82.60;99184.30;1699644;85;21018;-90
2022/07/04 04:08:52;;;;;;;23.27;9.98;;;;;;;21.34;82.27;99185.42;1703629;84;20991;-90
2022/07/04 04:11:19;;;;;;;19.65;8.63;;;;;;;21.36;81.92;99191.45;1677931;84;20995;-90
2022/07/04 04:13:46;;;;;;;21.25;9.45;;;;;;;21.38;82.41;99190.39;1698044;84;20908;-90
2022/07/04 04:16:13;;;;;;;17.57;9.28;;;;;;;21.39;82.61;99189.94;1702860;84;21035;-91
2022/07/04 04:18:39;;;;;;;21.90;9.43;;;;;;;21.40;82.31;99188.97;1702790;83;20991;-90
2022/07/04 04:21:07;;;;;;;20.05;8.95;;;;;;;21.43;82.18;99185.68;1704826;84;21011;-90
2022/07/04 04:23:34;;;;;;;18.73;9.43;;;;;;;21.41;82.32;99183.59;1704864;84;20956;-90
2022/07/04 04:26:01;;;;;;;20.37;9.55;;;;;;;21.43;82.42;99186.16;1704863;84;20987;-91
2022/07/04 04:28:28;;;;;;;24.63;9.40;;;;;;;21.48;82.32;99188.00;1705014;84;21046;-90
2022/07/04 04:30:54;;;;;;;15.40;9.38;;;;;;;21.48;82.70;99188.00;1704605;83;21064;-90
2022/07/04 04:33:21;;;;;;;16.42;8.80;;;;;;;21.52;82.92;99191.29;1683114;84;21114;-90
2022/07/04 04:35:48;;;;;;;15.78;8.48;;;;;;;21.55;82.76;99191.93;1683620;84;21510;-90
2022/07/04 04:38:15;;;;;;;18.60;8.85;;;;;;;21.54;82.54;99196.83;1726056;83;20975;-90
2022/07/04 04:40:42;;;;;;;17.37;9.40;;;;;;;21.55;82.95;99195.06;1719253;83;21059;-89
2022/07/04 04:43:09;;;;;;;19.05;8.83;;;;;;;21.63;82.40;99194.05;1734728;83;21022;-90
2022/07/04 04:45:36;;;;;;;17.27;9.53;;;;;;;21.60;82.43;99193.77;1736688;83;21019;-89
2022/07/04 04:48:03;;;;;;;20.72;9.05;;;;;;;21.61;82.80;99188.86;1737311;82;21035;-90
2022/07/04 04:50:29;;;;;;;19.67;9.05;;;;;;;21.67;82.36;99184.95;1738003;83;21107;-90
2022/07/04 04:52:57;;;;;;;15.05;9.25;;;;;;;21.65;83.05;99186.36;1738027;83;21041;-90
2022/07/04 04:55:24;;;;;;;17.67;8.90;;;;;;;21.71;82.92;99190.39;1737930;82;21019;-90
2022/07/04 04:57:51;;;;;;;19.57;9.38;;;;;;;21.81;82.83;99181.34;1736264;82;20999;-90
2022/07/04 05:00:18;;;;;;;17.05;9.13;;;;;;;21.90;82.12;99183.31;1708397;83;21011;-90
2022/07/04 05:02:45;;;;;;;23.18;9.48;;;;;;;22.01;82.06;99182.58;1708489;83;21031;-91
2022/07/04 05:05:19;;;;;;;18.50;10.03;;;;;;;22.12;81.87;99179.15;1708268;84;21051;-90
2022/07/04 05:07:51;;;;;;;17.42;10.80;;;;;;;22.20;81.66;99171.50;1707802;83;21115;-90
2022/07/04 05:10:22;;;;;;;25.60;11.10;;;;;;;22.31;81.18;99174.26;1750001;81;21030;-90
2022/07/04 05:12:51;;;;;;;24.87;11.18;;;;;;;22.38;81.06;99170.67;1753022;82;21037;-90
2022/07/04 05:15:23;;;;;;;14.90;9.03;;;;;;;22.42;80.64;99170.81;1730081;82;21053;-90
2022/07/04 05:17:53;;;;;;;17.00;9.38;;;;;;;22.50;79.82;99174.23;1706525;82;21034;-90
2022/07/04 05:20:27;;;;;;;15.98;8.73;;;;;;;22.43;79.84;99168.55;1729525;82;21017;-90
2022/07/04 05:22:56;;;;;;;17.85;8.85;;;;;;;22.51;79.53;99175.94;1688688;83;21063;-89
2022/07/04 05:25:26;;;;;;;14.30;9.00;;;;;;;22.54;79.62;99178.35;1712420;83;20991;-90
2022/07/04 05:27:54;;;;;;;15.88;8.68;;;;;;;22.58;79.54;99174.52;1726224;81;21037;-80
2022/07/04 05:30:20;;;;;;;19.48;8.98;;;;;;;22.67;79.35;99184.94;1743031;81;21524;-80
2022/07/04 05:32:47;;;;;;;19.35;9.00;;;;;;;22.72;79.04;99180.13;1727626;82;21018;-89
2022/07/04 05:35:14;;;;;;;21.85;9.53;;;;;;;22.77;78.91;99173.53;1679441;86;21024;-90
2022/07/04 05:37:41;;;;;;;15.38;8.75;;;;;;;22.85;78.83;99174.28;1655233;85;21008;-91
2022/07/04 05:40:09;;;;;;;20.55;9.15;;;;;;;22.94;78.43;99179.37;1668825;85;21062;-90
2022/07/04 05:42:39;;;;;;;16.12;9.35;;;;;;;23.01;77.98;99180.13;1669625;85;21038;-88
2022/07/04 05:45:07;;;;;;;19.70;9.78;;;;;;;23.08;77.61;99183.66;1677972;85;21027;-89
2022/07/04 05:47:40;;;;;;;18.62;9.70;;;;;;;23.13;77.48;99182.36;1679922;86;21036;-91
2022/07/04 05:50:11;;;;;;;16.80;8.13;;;;;;;23.21;77.25;99181.30;1635009;83;21215;-89
2022/07/04 05:52:38;;;;;;;15.93;8.68;;;;;;;23.34;76.20;99181.70;1705010;83;21049;-91
2022/07/04 05:55:07;;;;;;;17.40;7.97;;;;;;;23.36;76.04;99187.73;1698393;84;21010;-90
2022/07/04 05:57:34;;;;;;;17.02;7.87;;;;;;;23.45;76.20;99183.03;1701936;84;21490;-90
2022/07/04 06:00:05;;;;;;;15.68;8.25;;;;;;;23.56;76.32;99181.73;1704770;84;21066;-89
2022/07/04 06:02:34;;;;;;;15.15;7.92;;;;;;;23.74;76.03;99179.94;1694575;85;21032;-90
2022/07/04 06:05:05;;;;;;;15.08;8.20;;;;;;;23.89;76.01;99173.44;1680538;83;21026;-90
2022/07/04 06:07:37;;;;;;;15.72;8.75;;;;;;;24.06;75.70;99176.59;1695370;84;20977;-91
2022/07/04 06:10:15;;;;;;;19.00;8.43;;;;;;;24.23;75.39;99172.07;1697275;83;21113;-87
2022/07/04 06:12:43;;;;;;;13.22;8.10;;;;;;;24.36;73.85;99158.16;1679622;83;21050;-84
2022/07/04 06:18:28;;;;;;;17.87;9.43;;;;;;;24.50;73.17;99157.53;1728187;81;21094;-90
2022/07/04 06:21:10;;;;;;;13.68;8.48;;;;;;;24.58;73.11;99147.98;1710962;82;21045;-87
2022/07/04 06:23:41;;;;;;;16.32;9.00;;;;;;;24.68;73.22;99136.59;1639111;82;21185;-86
2022/07/04 06:32:28;;;;;;;16.57;8.35;;;;;;;24.90;71.35;99143.62;1672099;80;21069;-89
2022/07/04 06:44:14;;;;;;;16.93;8.43;;;;;;;25.13;70.65;99141.70;1690109;82;21096;-89
2022/07/04 06:46:45;;;;;;;13.93;8.13;;;;;;;25.31;69.77;99137.98;1703216;82;21004;-90
2022/07/04 06:49:19;;;;;;;16.73;7.00;;;;;;;25.37;69.36;99144.95;1666189;84;21068;-90
2022/07/04 06:51:52;;;;;;;14.85;7.90;;;;;;;25.42;69.06;99143.20;1664579;84;21059;-90
2022/07/04 06:54:27;;;;;;;16.15;7.00;;;;;;;25.48;69.47;99140.02;1696593;81;21024;-89
2022/07/04 06:57:13;;;;;;;14.90;8.00;;;;;;;25.58;69.59;99140.06;1679880;84;21027;-89
2022/07/04 06:59:41;;;;;;;12.37;7.78;;;;;;;25.71;69.25;99139.36;1665630;84;21006;-88
2022/07/04 07:02:18;;;;;;;13.80;7.97;;;;;;;25.86;68.86;99142.48;1688948;83;20989;-89
2022/07/04 07:04:50;;;;;;;16.40;8.30;;;;;;;25.96;68.41;99136.77;1686283;83;20995;-90
2022/07/04 07:07:27;;;;;;;14.83;8.15;;;;;;;26.05;67.34;99135.09;1669559;85;21015;-88
2022/07/04 07:09:58;;;;;;;16.73;7.78;;;;;;;26.13;67.31;99132.58;1691340;83;21040;-90
2022/07/04 07:12:26;;;;;;;17.02;8.25;;;;;;;26.21;66.21;99131.06;1670654;81;20939;-89
2022/07/04 07:21:00;;;;;;;15.55;8.15;;;;;;;26.45;65.58;99125.34;1696217;83;21122;-90
2022/07/04 07:23:27;;;;;;;11.45;7.28;;;;;;;26.56;65.46;99124.72;1717350;82;21064;-90
2022/07/04 07:25:54;;;;;;;17.10;7.30;;;;;;;26.65;65.39;99115.06;1681052;83;21188;-90
2022/07/04 07:37:46;;;;;;;;;;;;;;;;;;;;;
2022/07/04 07:43:14;;;;;;;13.30;8.08;;;;;;;27.40;62.62;99109.91;1695008;80;21118;-90
2022/07/04 07:45:41;;;;;;;13.10;7.78;;;;;;;27.54;62.28;99106.76;1745505;80;21173;-89
2022/07/04 07:51:11;;;;;;;15.93;7.92;;;;;;;27.73;61.36;99107.15;1671612;82;21067;-92
2022/07/04 08:18:04;;;;;;;10.10;6.92;;;;;;;28.98;57.78;99104.77;1651046;83;21102;-91
2022/07/04 08:23:34;;;;;;;13.18;7.17;;;;;;;29.29;56.56;99093.13;1638152;83;21074;-87
2022/07/04 08:26:04;;;;;;;9.88;7.45;;;;;;;29.47;56.52;99099.25;1655577;83;21135;-91
2022/07/04 08:34:39;;;;;;;15.25;7.47;;;;;;;29.92;55.17;99099.48;1644751;83;21079;-89
2022/07/04 08:37:06;;;;;;;10.75;7.15;;;;;;;30.11;53.38;99092.15;1694002;82;21148;-90
2022/07/04 08:45:48;;;;;;;11.78;6.58;;;;;;;30.30;51.47;99097.25;1663492;80;21152;31
2022/07/04 09:07:51;;;;;;;12.43;6.00;;;;;;;31.15;46.23;99075.11;1599957;85;21177;-91
2022/07/04 09:10:20;;;;;;;12.68;8.78;;;;;;;31.19;46.17;99063.84;1684886;83;21083;-92
2022/07/04 09:12:48;;;;;;;12.82;7.22;;;;;;;31.19;46.55;99056.30;1668237;81;21172;-93
2022/07/04 09:15:23;;;;;;;13.48;6.95;;;;;;;31.33;46.89;99052.89;1739812;81;21009;-94
2022/07/04 09:18:13;;;;;;;13.62;6.65;;;;;;;31.49;47.04;99038.08;1689521;81;22896;-91
2022/07/04 09:20:50;;;;;;;9.85;6.17;;;;;;;31.72;46.35;99038.66;1739517;81;20993;-93
2022/07/04 09:23:23;;;;;;;11.40;6.17;;;;;;;31.98;45.35;99045.58;1606237;84;21043;-93
2022/07/04 09:26:06;;;;;;;10.05;6.10;;;;;;;32.13;44.06;99039.77;1686232;84;21079;-93
2022/07/04 09:28:44;;;;;;;12.95;6.17;;;;;;;32.28;43.49;99049.27;1668826;83;20952;-93
2022/07/04 09:31:30;;;;;;;10.63;6.10;;;;;;;32.44;44.22;99037.55;1685354;84;21079;-92
2022/07/04 09:34:06;;;;;;;13.10;6.40;;;;;;;32.66;43.15;99037.21;1722619;82;21001;-92
2022/07/04 09:36:41;;;;;;;14.23;6.60;;;;;;;32.83;42.00;99038.73;1763420;81;21058;-91
2022/07/04 09:39:21;;;;;;;11.10;6.30;;;;;;;32.96;42.50;99042.64;1781205;79;21001;-93
2022/07/04 09:42:06;;;;;;;9.98;5.50;;;;;;;33.05;43.15;99041.03;1780933;79;20960;-93
2022/07/04 09:44:52;;;;;;;11.90;5.85;;;;;;;33.31;41.64;99047.85;1704331;83;21032;-92
2022/07/04 09:47:31;;;;;;;14.70;6.08;;;;;;;33.42;41.63;99041.14;1691060;80;21089;-91
2022/07/04 09:50:14;;;;;;;9.23;5.08;;;;;;;33.58;41.20;99042.28;1651681;85;21027;-93
2022/07/04 09:52:56;;;;;;;11.83;5.00;;;;;;;33.72;38.51;99047.87;1719980;83;20977;-93
2022/07/04 09:55:31;;;;;;;12.37;5.22;;;;;;;33.76;39.26;99045.11;1720661;83;21036;-94
2022/07/04 10:00:51;;;;;;;11.53;5.67;;;;;;;33.73;39.09;99050.38;1723566;82;21047;-92
2022/07/04 10:03:37;;;;;;;11.90;5.78;;;;;;;33.67;38.77;99051.14;1715304;82;20976;-92
2022/07/04 10:06:15;;;;;;;8.68;5.17;;;;;;;33.58;36.85;99050.88;1662374;82;21050;-91
2022/07/04 10:08:45;;;;;;;10.90;5.30;;;;;;;33.54;37.40;99052.28;1677586;86;21071;-93
2022/07/04 10:11:26;;;;;;;8.75;5.30;;;;;;;33.46;37.69;99059.95;1664722;84;21153;-91
2022/07/04 10:17:03;;;;;;;19.20;6.08;;;;;;;33.14;37.42;99088.94;1675522;83;21092;-92
2022/07/04 10:19:30;;;;;;;10.45;5.90;;;;;;;32.29;39.11;99079.16;1742080;81;20982;-90
2022/07/04 10:21:59;;;;;;;11.28;5.53;;;;;;;31.04;41.46;99098.62;1742100;82;20989;-92
2022/07/04 10:24:26;;;;;;;8.73;4.40;;;;;;;30.73;42.14;99107.32;1716492;81;21230;-88
2022/07/04 10:26:53;;;;;;;8.33;4.47;;;;;;;29.94;42.11;99097.95;1710700;80;21129;-88
2022/07/04 10:29:20;;;;;;;9.93;3.72;;;;;;;29.65;42.39;99093.80;1719646;81;21051;-90
2022/07/04 10:31:48;;;;;;;12.95;4.62;;;;;;;29.47;42.91;99079.67;1719691;82;21005;-90
2022/07/04 10:40:42;;;;;;;;;;;;;;;28.99;45.43;99073.84;1694202;84;21087;-91
2022/07/04 10:43:36;;;;;;;9.47;4.50;;;;;;;28.88;44.91;99062.05;1679242;83;20205;31
2022/07/04 10:52:14;;;;;;;10.70;4.60;;;;;;;29.08;45.55;99042.61;1598196;87;21063;-90
2022/07/04 10:54:54;;;;;;;8.43;4.53;;;;;;;29.03;46.11;99038.22;1648850;82;21047;-90
2022/07/04 10:57:25;;;;;;;;;;;;;;;29.18;45.50;99034.50;1626044;83;21081;-92
2022/07/04 11:00:03;;;;;;;9.13;4.90;;;;;;;29.27;45.36;99033.05;1764644;81;20107;-92
2022/07/04 11:02:48;;;;;;;10.20;4.72;;;;;;;29.31;43.89;99033.57;1736281;83;21007;-91
2022/07/04 11:05:25;;;;;;;13.00;5.10;;;;;;;29.15;44.45;99033.82;1760148;81;21079;-91
2022/07/04 11:08:15;;;;;;;10.25;4.80;;;;;;;29.20;45.07;99032.00;1764085;81;21475;-90
2022/07/04 11:11:05;;;;;;;18.07;4.90;;;;;;;29.08;44.91;99027.38;1757118;81;20999;-92
2022/07/04 11:13:16;;;;;;;9.65;4.87;;;;;;;28.91;45.77;99026.97;1695068;80;21080;-92
2022/07/04 11:47:18;;;;;;;9.28;5.05;;;;;;;28.28;51.49;98994.03;1717495;81;21043;-92
2022/07/04 11:58:46;;;;;;;11.10;5.25;;;;;;;28.62;51.21;98977.27;1658466;82;21099;-89
2022/07/04 12:06:51;;;;;;;9.73;5.65;;;;;;;28.84;52.64;98966.54;1680056;82;21051;-90
2022/07/04 12:09:18;;;;;;;12.10;6.17;;;;;;;28.97;52.23;98974.16;1704224;82;21051;-92
2022/07/04 12:11:55;;;;;;;12.43;5.72;;;;;;;29.07;52.09;98973.53;1655256;82;21095;-86
2022/07/04 12:17:44;;;;;;;7.87;5.15;;;;;;;29.26;50.97;98963.59;1658371;83;21070;-92
2022/07/04 12:20:19;;;;;;;9.05;5.00;;;;;;;29.32;50.53;98966.45;1686813;83;21062;-91
2022/07/04 12:23:09;;;;;;;13.98;5.45;;;;;;;29.50;49.56;98962.83;1642486;79;21219;31
2022/07/04 12:28:41;;;;;;;;;;;;;;;30.27;48.99;98952.73;1652287;83;21059;-92
2022/07/04 12:31:14;;;;;;;11.22;6.58;;;;;;;30.94;47.69;98958.39;1706903;83;20106;-91
2022/07/04 12:34:04;;;;;;;8.28;4.62;;;;;;;31.51;46.87;98950.12;1647208;85;21079;-89
2022/07/04 12:49:16;;;;;;;10.72;4.15;;;;;;;35.17;38.55;98947.63;1663769;85;20992;-90
2022/07/04 12:51:43;;;;;;;8.45;4.22;;;;;;;36.02;37.21;98943.20;1720086;83;21431;-89
2022/07/04 12:54:11;;;;;;;7.47;4.42;;;;;;;36.66;35.28;98953.12;1697692;83;22604;-89
2022/07/04 12:56:41;;;;;;;12.80;4.70;;;;;;;37.31;34.21;98947.22;1727653;83;21487;-90
2022/07/04 12:59:15;;;;;;;7.85;4.62;;;;;;;37.96;34.63;98951.14;1695196;84;21452;-86
2022/07/04 13:01:44;;;;;;;7.67;4.25;;;;;;;38.63;33.42;98949.80;1671011;85;21013;-92
2022/07/04 13:04:12;;;;;;;9.00;4.08;;;;;;;39.29;33.29;98936.80;1721612;83;21579;-93
2022/07/04 13:06:39;;;;;;;9.98;3.98;;;;;;;40.05;31.93;98934.52;1720941;83;21071;-93
2022/07/04 13:09:07;;;;;;;9.28;3.90;;;;;;;40.62;29.13;98926.33;1706605;83;20982;-92
2022/07/04 13:14:20;;;;;;;8.85;3.92;;;;;;;41.50;28.58;98923.80;1716860;83;21018;-90
2022/07/04 13:16:47;;;;;;;8.75;4.20;;;;;;;41.84;26.59;98919.78;1729024;83;20998;-91
2022/07/04 13:19:16;;;;;;;9.78;4.37;;;;;;;41.97;25.88;98911.83;1719683;83;20975;-91
2022/07/04 13:21:43;;;;;;;11.00;4.03;;;;;;;42.40;25.00;98914.44;1726371;83;21036;-89
2022/07/04 13:24:10;;;;;;;5.67;3.60;;;;;;;42.42;25.49;98904.09;1717984;83;21054;-91
2022/07/04 13:26:37;;;;;;;9.40;4.15;;;;;;;42.70;24.97;98899.58;1712447;83;20994;-88
2022/07/04 13:29:04;;;;;;;10.98;3.77;;;;;;;43.08;24.64;98882.84;1714220;83;21098;-92
2022/07/04 13:31:31;;;;;;;7.00;3.90;;;;;;;43.60;23.88;98886.94;1712503;83;21058;-90
2022/07/04 13:33:58;;;;;;;12.00;3.98;;;;;;;43.69;23.20;98886.77;1719794;83;21002;-88
2022/07/04 13:36:25;;;;;;;7.87;3.45;;;;;;;44.19;20.00;98886.07;1718064;83;20991;-90
2022/07/04 13:38:52;;;;;;;9.73;3.70;;;;;;;44.49;22.16;98880.00;1715169;83;21043;-80
2022/07/04 13:41:19;;;;;;;7.87;3.85;;;;;;;44.62;21.09;98883.61;1683334;83;21058;-80
2022/07/04 13:43:47;;;;;;;7.72;3.70;;;;;;;44.85;17.61;98885.09;1693944;83;21055;-77
2022/07/04 13:46:15;;;;;;;8.60;3.67;;;;;;;45.04;19.55;98884.06;1676192;83;21487;-79
2022/07/04 13:48:42;;;;;;;10.40;4.83;;;;;;;45.59;20.11;98877.61;1640154;87;21583;-80
2022/07/04 13:51:09;;;;;;;6.08;3.50;;;;;;;45.64;18.74;98870.77;1671407;86;21006;-77
2022/07/04 13:53:36;;;;;;;6.75;3.58;;;;;;;46.11;19.37;98868.03;1670621;84;21010;-78
2022/07/04 13:56:04;;;;;;;12.05;3.72;;;;;;;46.11;19.16;98862.54;1633595;87;21029;-77
2022/07/04 13:58:31;;;;;;;7.60;4.25;;;;;;;46.56;18.50;98864.89;1666569;85;21387;-76
2022/07/04 14:00:58;;;;;;;7.95;3.90;;;;;;;46.30;18.27;98867.72;1661733;86;21070;-76
2022/07/04 14:03:25;;;;;;;6.42;3.50;;;;;;;46.33;17.87;98874.58;1636712;87;21014;-77
2022/07/04 14:05:52;;;;;;;7.87;3.85;;;;;;;46.52;17.15;98878.93;1659288;86;21040;-76
2022/07/04 14:08:18;;;;;;;5.70;3.52;;;;;;;46.69;17.49;98886.30;1660602;86;21458;-76
2022/07/04 14:10:45;;;;;;;6.20;3.83;;;;;;;46.82;17.68;98887.11;1631006;87;21024;-76
2022/07/04 14:13:12;;;;;;;8.50;3.65;;;;;;;46.77;16.60;98889.02;1661111;86;20986;-77
2022/07/04 14:15:40;;;;;;;9.23;4.00;;;;;;;46.56;16.40;98888.27;1670168;84;20986;-78
2022/07/04 14:18:13;;;;;;;9.53;3.98;;;;;;;46.16;17.46;98885.87;1638963;87;21518;-74
2022/07/04 14:20:36;;;;;;;8.15;4.25;;;;;;;45.49;17.18;98887.78;1667329;85;21007;-76
2022/07/04 14:23:03;;;;;;;9.28;4.00;;;;;;;45.18;17.17;98884.38;1664094;86;21486;-77
2022/07/04 14:25:30;;;;;;;9.25;4.08;;;;;;;44.54;18.41;98885.49;1665387;86;21010;-77
2022/07/04 14:27:57;;;;;;;10.48;4.50;;;;;;;43.70;18.29;98887.06;1635123;87;21056;-75
2022/07/04 14:30:24;;;;;;;7.80;4.10;;;;;;;42.98;19.22;98889.53;1661002;86;21010;-76
2022/07/04 14:32:50;;;;;;;7.83;3.98;;;;;;;42.07;19.82;98890.72;1660489;86;20959;-76
2022/07/04 14:35:18;;;;;;;13.78;4.95;;;;;;;40.99;21.60;98890.59;1638194;86;21402;-75
2022/07/04 14:37:45;;;;;;;7.12;4.20;;;;;;;38.95;25.33;98892.88;1661055;84;21058;-76
2022/07/04 14:40:13;;;;;;;12.60;4.78;;;;;;;37.28;27.88;98887.17;1665382;86;21058;-77
2022/07/04 14:42:39;;;;;;;10.60;4.33;;;;;;;36.47;29.65;98887.09;1633343;87;21643;-76
2022/07/04 14:45:07;;;;;;;7.50;4.58;;;;;;;35.38;31.73;98889.92;1661804;86;21099;-76
2022/07/04 14:47:34;;;;;;;8.05;4.70;;;;;;;34.34;33.58;98896.72;1687466;83;21092;-76
2022/07/04 14:50:02;;;;;;;13.53;4.25;;;;;;;34.29;33.75;98893.80;1684350;83;21114;-76
2022/07/04 14:52:29;;;;;;;12.15;4.80;;;;;;;33.65;34.50;98892.30;1686637;83;21082;-70
2022/07/04 14:54:58;;;;;;;9.40;4.20;;;;;;;33.42;34.34;98888.38;1681145;83;21031;-91
2022/07/04 15:00:13;;;;;;;8.45;4.70;;;;;;;32.76;35.08;98885.70;1689062;82;21059;-93